createdAt,value
2019-04-04T00:01:16.726Z,86.46
2019-04-04T00:04:04.026Z,86.52
2019-04-04T00:06:51.549Z,86.88
2019-04-04T00:09:39.079Z,87.24
2019-04-04T00:12:08.069Z,87.52
2019-04-04T00:14:37.611Z,87.00
2019-04-04T00:17:25.143Z,86.69
2019-04-04T00:22:27.475Z,87.38
2019-04-04T00:25:15.016Z,86.80
2019-04-04T00:28:02.803Z,86.19
2019-04-04T00:30:50.445Z,85.48
2019-04-04T00:33:37.957Z,85.41
2019-04-04T00:36:25.674Z,84.75
2019-04-04T00:39:13.308Z,83.67
2019-04-04T00:41:42.984Z,82.64
2019-04-04T00:44:12.085Z,83.28
2019-04-04T00:46:40.478Z,83.34
2019-04-04T00:49:08.872Z,83.33
2019-04-04T00:51:39.057Z,83.85
2019-04-04T00:54:07.377Z,83.36
2019-04-04T00:56:35.767Z,82.58
2019-04-04T00:59:04.166Z,82.04
2019-04-04T01:01:51.812Z,82.11
2019-04-04T01:04:20.205Z,81.84
2019-04-04T01:07:07.837Z,81.85
2019-04-04T01:09:55.487Z,82.01
2019-04-04T01:12:23.879Z,81.72
2019-04-04T01:14:52.293Z,82.10
2019-04-04T01:17:39.924Z,82.51
2019-04-04T01:20:50.410Z,82.55
2019-04-04T01:23:37.614Z,82.07
2019-04-04T01:26:25.122Z,81.64
2019-04-04T01:29:12.650Z,82.23
2019-04-04T01:32:00.151Z,82.62
2019-04-04T01:34:28.553Z,83.35
2019-04-04T01:36:57.149Z,82.58
2019-04-04T01:39:27.071Z,82.77
2019-04-04T01:41:55.472Z,83.26
2019-04-04T01:44:43.157Z,83.34
2019-04-04T01:47:11.532Z,84.60
2019-04-04T01:49:39.935Z,84.61
2019-04-04T01:52:08.335Z,84.59
2019-04-04T01:54:36.732Z,84.78
2019-04-04T01:57:07.703Z,85.19
2019-04-04T02:02:09.608Z,84.39
2019-04-04T02:07:12.042Z,83.81
2019-04-04T02:09:43.252Z,83.02
2019-04-04T02:14:58.013Z,83.46
2019-04-04T02:17:26.419Z,82.74
2019-04-04T02:20:14.060Z,82.80
2019-04-04T02:22:42.453Z,82.43
2019-04-04T02:25:50.771Z,81.89
2019-04-04T02:33:42.211Z,81.34
2019-04-04T02:36:10.617Z,81.22
2019-04-04T02:38:39.008Z,81.46
2019-04-04T02:41:26.655Z,81.72
2019-04-04T02:44:14.167Z,81.74
2019-04-04T02:47:01.829Z,81.87
2019-04-04T02:49:49.465Z,82.03
2019-04-04T02:52:37.004Z,81.27
2019-04-04T02:55:45.283Z,81.69
2019-04-04T02:58:15.094Z,81.53
2019-04-04T03:01:08.868Z,81.34
2019-04-04T03:03:41.082Z,80.92
2019-04-04T03:06:07.996Z,81.15
2019-04-04T03:08:43.169Z,80.79
2019-04-04T03:11:13.736Z,81.13
2019-04-04T03:13:49.282Z,81.59
2019-04-04T03:16:21.473Z,81.90
2019-04-04T03:18:57.575Z,82.00
2019-04-04T03:21:29.791Z,81.43
2019-04-04T03:24:06.554Z,81.13
2019-04-04T03:26:42.070Z,80.87
2019-04-04T03:29:10.868Z,80.92
2019-04-04T03:31:44.004Z,80.56
2019-04-04T03:34:28.178Z,80.99
2019-04-04T03:36:47.120Z,81.17
2019-04-04T03:39:19.720Z,80.72
2019-04-04T03:41:48.671Z,80.24
2019-04-04T03:44:20.743Z,80.10
2019-04-04T03:46:49.781Z,80.21
2019-04-04T03:49:23.425Z,80.51
2019-04-04T03:51:53.414Z,80.08
2019-04-04T03:54:27.159Z,79.83
2019-04-04T03:56:57.367Z,79.84
2019-04-04T03:59:33.648Z,79.90
2019-04-04T04:02:04.307Z,80.04
2019-04-04T04:04:45.784Z,80.96
2019-04-04T04:07:19.991Z,81.19
2019-04-04T04:09:49.660Z,81.11
2019-04-04T04:12:27.304Z,81.27
2019-04-04T04:15:13.230Z,82.07
2019-04-04T04:18:26.772Z,81.96
2019-04-04T04:24:02.868Z,81.51
2019-04-04T04:26:56.886Z,80.36
2019-04-04T04:29:29.830Z,79.80
2019-04-04T04:31:57.445Z,79.80
2019-04-04T04:34:39.577Z,79.52
2019-04-04T04:37:20.506Z,79.21
2019-04-04T04:42:48.920Z,79.64
2019-04-04T04:45:36.541Z,79.57
2019-04-04T04:48:05.038Z,79.58
2019-04-04T04:50:52.699Z,79.23
2019-04-04T04:53:21.102Z,79.54
2019-04-04T04:58:56.070Z,79.59
2019-04-04T05:01:43.807Z,79.35
2019-04-04T05:04:12.158Z,79.81
2019-04-04T05:06:40.591Z,80.87
2019-04-04T05:09:09.004Z,81.37
2019-04-04T05:11:37.418Z,81.36
2019-04-04T05:14:05.858Z,80.94
2019-04-04T05:16:35.878Z,81.55
2019-04-04T05:19:04.665Z,82.78
2019-04-04T05:21:52.393Z,82.88
2019-04-04T05:24:40.139Z,82.02
2019-04-04T05:27:27.827Z,81.74
2019-04-04T05:29:56.210Z,81.13
2019-04-04T05:32:43.905Z,80.74
2019-04-04T05:35:15.060Z,81.85
2019-04-04T05:37:42.500Z,82.72
2019-04-04T05:40:50.785Z,83.53
2019-04-04T05:43:19.234Z,84.08
2019-04-04T05:46:06.787Z,83.68
2019-04-04T05:51:09.575Z,84.24
2019-04-04T05:56:14.845Z,85.34
2019-04-04T05:58:42.250Z,84.73
2019-04-04T06:03:59.743Z,84.43
2019-04-04T06:06:47.400Z,85.49
2019-04-04T06:14:56.383Z,86.72
2019-04-04T06:17:44.030Z,85.15
2019-04-04T06:20:52.341Z,84.46
2019-04-04T06:25:55.065Z,83.00
2019-04-04T06:28:23.468Z,84.53
2019-04-04T06:30:54.264Z,84.74
2019-04-04T06:33:21.987Z,84.50
2019-04-04T06:36:09.636Z,84.77
2019-04-04T06:38:38.041Z,84.28
2019-04-04T06:41:28.138Z,84.87
2019-04-04T06:44:15.569Z,85.41
2019-04-04T06:47:03.212Z,85.42
2019-04-04T06:49:50.866Z,86.70
2019-04-04T06:57:28.165Z,85.67
2019-04-04T07:00:16.570Z,85.14
2019-04-04T07:02:47.285Z,84.11
2019-04-04T07:05:55.861Z,83.05
2019-04-04T07:08:45.141Z,83.04
2019-04-04T07:11:32.999Z,82.53
2019-04-04T07:14:22.124Z,81.92
2019-04-04T07:19:57.230Z,80.27
2019-04-04T07:22:44.737Z,79.92
2019-04-04T07:25:13.207Z,79.20
2019-04-04T07:27:41.617Z,77.32
2019-04-04T07:30:49.938Z,76.91
2019-04-04T07:33:21.228Z,76.87
2019-04-04T07:35:48.894Z,76.51
2019-04-04T07:38:18.765Z,75.09
2019-04-04T07:40:47.168Z,74.45
2019-04-04T07:43:34.707Z,75.58
2019-04-04T07:46:15.642Z,75.64
2019-04-04T07:48:52.523Z,75.35
2019-04-04T07:51:20.933Z,75.13
2019-04-04T07:54:08.709Z,74.88
2019-04-04T07:56:37.230Z,75.49
2019-04-04T08:01:50.639Z,74.37
2019-04-04T08:04:09.418Z,74.52
2019-04-04T08:06:37.851Z,74.91
2019-04-04T08:09:46.174Z,75.95
2019-04-04T08:12:33.823Z,76.04
2019-04-04T08:15:02.250Z,75.21
2019-04-04T08:17:30.654Z,74.89
2019-04-04T08:20:00.106Z,75.38
2019-04-04T08:22:28.552Z,74.48
2019-04-04T08:24:56.961Z,75.61
2019-04-04T08:27:25.364Z,75.51
2019-04-04T08:29:53.774Z,73.73
2019-04-04T08:32:22.174Z,74.20
2019-04-04T08:34:50.585Z,74.92
2019-04-04T08:37:18.989Z,75.04
2019-04-04T08:39:47.411Z,73.06
2019-04-04T08:42:15.883Z,73.89
2019-04-04T08:44:44.294Z,74.35
2019-04-04T08:47:12.836Z,73.71
2019-04-04T08:49:41.256Z,73.34
2019-04-04T08:52:16.504Z,74.27
2019-04-04T08:54:39.788Z,72.24
2019-04-04T08:57:08.259Z,75.43
2019-04-04T08:59:36.684Z,76.33
2019-04-04T09:02:05.089Z,77.19
2019-04-04T09:04:33.504Z,77.42
2019-04-04T09:07:01.909Z,77.22
2019-04-04T09:09:30.327Z,78.22
2019-04-04T09:11:58.709Z,78.82
2019-04-04T09:14:27.119Z,79.22
2019-04-04T09:16:55.519Z,77.45
2019-04-04T09:19:23.934Z,75.89
2019-04-04T09:21:52.329Z,73.75
2019-04-04T09:24:20.747Z,74.55
2019-04-04T09:26:49.149Z,73.80
2019-04-04T09:29:17.562Z,73.25
2019-04-04T09:31:45.961Z,73.68
2019-04-04T09:34:14.376Z,74.62
2019-04-04T09:36:42.774Z,74.08
2019-04-04T09:39:11.182Z,73.91
2019-04-04T09:41:39.597Z,74.72
2019-04-04T09:44:08.013Z,74.85
2019-04-04T09:46:36.407Z,74.55
2019-04-04T09:49:04.951Z,74.00
2019-04-04T09:51:33.353Z,72.15
2019-04-04T09:54:01.750Z,73.83
2019-04-04T09:56:30.162Z,75.62
2019-04-04T09:58:58.566Z,75.19
2019-04-04T10:01:26.984Z,74.00
2019-04-04T10:03:55.384Z,71.69
2019-04-04T10:06:23.796Z,71.82
2019-04-04T10:08:52.191Z,70.29
2019-04-04T10:11:20.601Z,69.63
2019-04-04T10:13:49.001Z,69.23
2019-04-04T10:16:17.415Z,68.04
2019-04-04T10:18:45.816Z,68.41
2019-04-04T10:21:15.056Z,66.46
2019-04-04T10:23:43.458Z,65.23
2019-04-04T10:26:11.881Z,66.02
2019-04-04T10:28:40.290Z,65.50
2019-04-04T10:31:08.698Z,65.83
2019-04-04T10:33:37.105Z,65.28
2019-04-04T10:36:05.511Z,64.50
2019-04-04T10:38:33.908Z,62.84
2019-04-04T10:41:02.323Z,62.94
2019-04-04T10:43:30.724Z,62.18
2019-04-04T10:45:59.131Z,62.97
2019-04-04T10:48:27.535Z,62.69
2019-04-04T10:50:55.941Z,63.92
2019-04-04T10:53:24.344Z,63.37
2019-04-04T10:55:52.753Z,64.40
2019-04-04T10:58:21.153Z,65.83
2019-04-04T11:00:49.575Z,66.30
2019-04-04T11:03:17.970Z,65.48
2019-04-04T11:05:46.378Z,65.79
2019-04-04T11:08:14.777Z,66.20
2019-04-04T11:10:43.198Z,65.16
2019-04-04T11:13:11.614Z,65.96
2019-04-04T11:15:40.025Z,66.00
2019-04-04T11:18:08.426Z,66.43
2019-04-04T11:20:36.837Z,66.80
2019-04-04T11:23:05.237Z,66.30
2019-04-04T11:25:33.813Z,66.48
2019-04-04T11:28:02.212Z,65.97
2019-04-04T11:30:30.627Z,66.77
2019-04-04T11:32:59.033Z,66.81
2019-04-04T11:35:27.446Z,67.41
2019-04-04T11:37:55.852Z,67.64
2019-04-04T11:40:24.262Z,69.01
2019-04-04T11:42:52.662Z,68.72
2019-04-04T11:45:21.071Z,68.90
2019-04-04T11:47:49.462Z,68.99
2019-04-04T11:50:18.075Z,69.49
2019-04-04T11:52:46.472Z,70.46
2019-04-04T11:55:14.879Z,70.16
2019-04-04T11:57:43.276Z,70.20
2019-04-04T12:00:13.588Z,69.24
2019-04-04T12:02:42.078Z,69.71
2019-04-04T12:05:10.660Z,69.92
2019-04-04T12:07:39.056Z,70.40
2019-04-04T12:10:08.275Z,71.04
2019-04-04T12:12:36.779Z,72.51
2019-04-04T12:15:08.120Z,71.75
2019-04-04T12:17:36.535Z,71.63
2019-04-04T12:20:06.474Z,71.93
2019-04-04T12:22:34.899Z,72.56
2019-04-04T12:25:03.355Z,71.75
2019-04-04T12:27:31.765Z,73.19
2019-04-04T12:30:00.180Z,73.42
2019-04-04T12:32:28.585Z,73.03
2019-04-04T12:34:56.983Z,73.23
2019-04-04T12:37:25.394Z,71.44
2019-04-04T12:39:53.805Z,70.17
2019-04-04T12:42:22.212Z,69.06
2019-04-04T12:44:50.708Z,68.20
2019-04-04T12:47:19.126Z,69.14
2019-04-04T12:49:47.528Z,69.37
2019-04-04T12:52:15.942Z,69.58
2019-04-04T12:54:44.341Z,69.93
2019-04-04T12:57:12.753Z,70.99
2019-04-04T12:59:41.153Z,70.96
2019-04-04T13:02:09.565Z,71.23
2019-04-04T13:04:37.960Z,71.52
2019-04-04T13:07:06.366Z,72.19
2019-04-04T13:09:34.766Z,72.58
2019-04-04T13:12:03.176Z,73.13
2019-04-04T13:14:31.577Z,73.18
2019-04-04T13:16:59.989Z,73.25
2019-04-04T13:19:28.384Z,72.89
2019-04-04T13:21:56.796Z,72.82
2019-04-04T13:24:25.194Z,72.51
2019-04-04T13:26:53.602Z,73.06
2019-04-04T13:29:22.000Z,73.11
2019-04-04T13:31:50.410Z,73.64
2019-04-04T13:34:18.816Z,73.73
2019-04-04T13:36:47.220Z,74.35
2019-04-04T13:39:15.629Z,73.97
2019-04-04T13:41:44.031Z,74.22
2019-04-04T13:44:12.447Z,74.46
2019-04-04T13:46:40.851Z,74.41
2019-04-04T13:49:09.642Z,74.20
2019-04-04T13:51:38.020Z,74.85
2019-04-04T13:54:06.427Z,75.59
2019-04-04T13:56:35.076Z,76.46
2019-04-04T13:59:05.951Z,76.68
2019-04-04T14:01:33.597Z,75.81
2019-04-04T14:04:02.007Z,75.21
2019-04-04T14:06:30.411Z,75.81
2019-04-04T14:08:58.821Z,76.28
2019-04-04T14:11:27.461Z,76.58
2019-04-04T14:13:58.693Z,77.03
2019-04-04T14:16:26.002Z,77.10
2019-04-04T14:18:54.412Z,77.29
2019-04-04T14:21:22.811Z,77.19
2019-04-04T14:23:52.986Z,76.70
2019-04-04T14:26:21.768Z,77.46
2019-04-04T14:28:50.182Z,77.89
2019-04-04T14:31:18.590Z,77.25
2019-04-04T14:33:46.996Z,76.74
2019-04-04T14:36:15.400Z,76.89
2019-04-04T14:38:43.808Z,76.16
2019-04-04T14:41:12.285Z,75.60
2019-04-04T14:43:40.667Z,75.34
2019-04-04T14:46:09.063Z,75.51
2019-04-04T14:48:37.476Z,75.41
2019-04-04T14:51:05.873Z,75.79
2019-04-04T14:53:34.279Z,75.30
2019-04-04T14:56:02.685Z,75.22
2019-04-04T14:58:31.192Z,75.69
2019-04-04T15:00:59.592Z,75.33
2019-04-04T15:03:28.000Z,75.65
2019-04-04T15:05:56.456Z,76.29
2019-04-04T15:08:24.867Z,76.03
2019-04-04T15:10:53.267Z,75.86
2019-04-04T15:13:21.704Z,74.72
2019-04-04T15:16:12.747Z,74.12
2019-04-04T15:18:41.147Z,73.54
2019-04-04T15:21:10.319Z,72.68
2019-04-04T15:23:38.779Z,71.62
2019-04-04T15:26:09.620Z,71.29
2019-04-04T15:28:37.392Z,70.64
2019-04-04T15:31:05.978Z,70.48
2019-04-04T15:33:34.548Z,69.84
2019-04-04T15:36:02.965Z,70.18
2019-04-04T15:38:31.361Z,69.68
2019-04-04T15:40:59.763Z,68.51
2019-04-04T15:43:28.295Z,68.38
2019-04-04T15:45:56.728Z,68.41
2019-04-04T15:48:25.139Z,69.21
2019-04-04T15:50:53.589Z,70.17
2019-04-04T15:53:22.002Z,70.34
2019-04-04T15:55:50.408Z,70.73
2019-04-04T15:58:18.817Z,71.23
2019-04-04T16:00:47.318Z,71.51
2019-04-04T16:03:15.736Z,71.63
2019-04-04T16:05:44.180Z,71.36
2019-04-04T16:08:12.596Z,70.74
2019-04-04T16:10:40.997Z,69.77
2019-04-04T16:13:09.399Z,69.70
2019-04-04T16:15:37.811Z,69.75
2019-04-04T16:18:06.228Z,72.42
2019-04-04T16:20:34.670Z,74.89
2019-04-04T16:23:03.082Z,76.40
2019-04-04T16:25:31.530Z,75.68
2019-04-04T16:27:59.933Z,75.39
2019-04-04T16:30:28.341Z,74.88
2019-04-04T16:32:56.854Z,74.13
2019-04-04T16:35:25.267Z,73.63
2019-04-04T16:37:53.715Z,73.14
2019-04-04T16:40:22.459Z,73.51
2019-04-04T16:42:50.859Z,73.47
2019-04-04T16:45:19.278Z,72.83
2019-04-04T16:47:47.674Z,72.61
2019-04-04T16:50:16.421Z,72.67
2019-04-04T16:52:44.825Z,71.96
2019-04-04T16:55:13.771Z,71.54
2019-04-04T16:57:43.533Z,71.34
2019-04-04T17:00:13.614Z,72.01
2019-04-04T17:02:42.022Z,71.56
2019-04-04T17:05:11.328Z,71.80
2019-04-04T17:07:39.849Z,72.08
2019-04-04T17:10:08.992Z,72.95
2019-04-04T17:12:37.398Z,73.96
2019-04-04T17:15:07.541Z,74.41
2019-04-04T17:17:35.979Z,74.81
2019-04-04T17:20:06.599Z,74.62
2019-04-04T17:22:35.011Z,74.86
2019-04-04T17:25:03.485Z,74.89
2019-04-04T17:27:31.891Z,75.25
2019-04-04T17:30:00.385Z,76.11
2019-04-04T17:32:28.806Z,76.16
2019-04-04T17:34:57.207Z,76.87
2019-04-04T17:37:25.686Z,78.10
2019-04-04T17:39:54.608Z,78.50
2019-04-04T17:42:30.754Z,78.24
2019-04-04T17:44:53.638Z,78.77
2019-04-04T17:47:22.564Z,78.56
2019-04-04T17:49:51.496Z,78.94
2019-04-04T17:52:19.851Z,78.87
2019-04-04T17:54:48.646Z,78.53
2019-04-04T17:57:18.184Z,79.85
2019-04-04T17:59:46.597Z,79.29
2019-04-04T18:02:15.005Z,79.73
2019-04-04T18:04:48.580Z,79.30
2019-04-04T18:07:13.567Z,79.28
2019-04-04T18:09:41.982Z,79.17
2019-04-04T18:12:10.380Z,78.82
2019-04-04T18:14:38.789Z,78.96
2019-04-04T18:17:07.190Z,80.03
2019-04-04T18:19:35.612Z,79.77
2019-04-04T18:22:04.200Z,79.54
2019-04-04T18:24:32.587Z,79.37
2019-04-04T18:27:01.262Z,79.38
2019-04-04T18:29:29.748Z,78.91
2019-04-04T18:31:58.170Z,79.44
2019-04-04T18:34:26.884Z,79.75
2019-04-04T18:36:55.362Z,80.35
2019-04-04T18:39:26.436Z,80.63
2019-04-04T18:41:53.893Z,80.54
2019-04-04T18:44:22.300Z,81.21
2019-04-04T18:46:50.719Z,81.64
2019-04-04T18:49:19.133Z,81.49
2019-04-04T18:51:47.532Z,80.84
2019-04-04T18:54:15.939Z,81.71
2019-04-04T18:56:44.349Z,81.68
2019-04-04T18:59:12.744Z,81.50
2019-04-04T19:01:41.159Z,82.25
2019-04-04T19:04:09.558Z,83.20
2019-04-04T19:06:38.040Z,83.98
2019-04-04T19:09:14.969Z,83.94
2019-04-04T19:11:40.889Z,85.15
2019-04-04T19:14:09.286Z,85.12
2019-04-04T19:16:37.733Z,85.89
2019-04-04T19:19:06.131Z,86.70
2019-04-04T19:21:34.533Z,86.98
2019-04-04T19:24:02.938Z,87.00
2019-04-04T19:26:31.458Z,86.67
2019-04-04T19:28:59.852Z,86.82
2019-04-04T19:31:28.435Z,86.77
2019-04-04T19:33:56.838Z,86.34
2019-04-04T19:36:25.254Z,85.94
2019-04-04T19:38:53.661Z,85.46
2019-04-04T19:41:22.070Z,85.14
2019-04-04T19:43:50.472Z,84.79
2019-04-04T19:46:18.876Z,84.55
2019-04-04T19:48:48.472Z,84.66
2019-04-04T19:51:16.858Z,84.35
2019-04-04T19:53:45.253Z,83.84
2019-04-04T19:56:13.673Z,83.62
2019-04-04T19:58:42.073Z,83.53
2019-04-04T20:01:11.052Z,84.05
2019-04-04T20:03:39.451Z,83.78
2019-04-04T20:06:07.871Z,84.02
2019-04-04T20:08:36.334Z,83.43
2019-04-04T20:11:04.919Z,82.45
2019-04-04T20:13:33.550Z,81.77
2019-04-04T20:18:35.685Z,81.01
2019-04-04T20:21:04.133Z,81.08
2019-04-04T20:23:51.717Z,80.91
2019-04-04T20:26:20.170Z,80.56
2019-04-04T20:31:43.025Z,80.08
2019-04-04T20:34:11.420Z,80.06
2019-04-04T20:36:59.072Z,79.92
2019-04-04T20:39:46.722Z,80.40
2019-04-04T20:42:34.384Z,80.84
2019-04-04T20:45:02.791Z,81.62
2019-04-04T20:47:50.442Z,81.71
2019-04-04T20:53:06.358Z,81.02
2019-04-04T20:55:53.891Z,80.67
2019-04-04T20:58:22.303Z,81.03
2019-04-04T21:01:09.814Z,81.51
2019-04-04T21:03:38.223Z,80.94
2019-04-04T21:06:06.629Z,81.21
2019-04-04T21:08:35.035Z,80.91
2019-04-04T21:13:56.299Z,80.09
2019-04-04T21:16:43.223Z,79.88
2019-04-04T21:19:11.684Z,79.62
2019-04-04T21:24:14.415Z,79.42
2019-04-04T21:27:01.972Z,78.94
2019-04-04T21:32:17.934Z,78.64
2019-04-04T21:34:46.339Z,78.90
2019-04-04T21:37:33.879Z,79.03
2019-04-04T21:40:02.293Z,79.39
2019-04-04T21:42:49.947Z,79.85
2019-04-04T21:45:18.345Z,79.40
2019-04-04T21:48:05.879Z,79.15
2019-04-04T21:53:21.729Z,80.30
2019-04-04T21:55:50.134Z,79.90
2019-04-04T21:58:18.561Z,80.07
2019-04-04T22:01:06.204Z,80.79
2019-04-04T22:03:53.855Z,80.65
2019-04-04T22:06:22.254Z,80.68
2019-04-04T22:09:09.784Z,81.36
2019-04-04T22:11:57.498Z,80.76
2019-04-04T22:14:25.898Z,80.92
2019-04-04T22:16:54.297Z,81.07
2019-04-04T22:19:41.960Z,81.22
2019-04-04T22:22:29.481Z,81.19
2019-04-04T22:25:17.127Z,82.33
2019-04-04T22:28:04.777Z,82.46
2019-04-04T22:30:33.180Z,82.93
2019-04-04T22:33:20.829Z,82.71
2019-04-04T22:35:49.226Z,82.41
2019-04-04T22:41:32.782Z,81.86
2019-04-04T22:44:19.350Z,81.82
2019-04-04T22:49:35.200Z,81.41
2019-04-04T22:52:03.612Z,81.73
2019-04-04T22:54:51.268Z,81.30
2019-04-04T22:57:38.935Z,81.54
2019-04-04T23:00:47.246Z,81.88
2019-04-04T23:06:13.844Z,82.85
2019-04-04T23:08:42.251Z,83.26
2019-04-04T23:11:29.772Z,82.81
2019-04-04T23:14:17.429Z,82.57
2019-04-04T23:17:05.081Z,83.68
2019-04-04T23:19:52.602Z,83.59
2019-04-04T23:22:52.117Z,83.35
2019-04-04T23:25:50.404Z,82.78
2019-04-04T23:28:18.814Z,82.32
2019-04-04T23:31:06.330Z,82.52
2019-04-04T23:33:53.853Z,82.53
2019-04-04T23:36:41.494Z,82.98
2019-04-04T23:39:09.905Z,83.05
2019-04-04T23:44:45.087Z,84.02
2019-04-04T23:47:42.603Z,83.70
2019-04-04T23:52:57.251Z,83.17
2019-04-04T23:58:18.761Z,83.18
